Letzte 24h
Datum & Zeit Temp. Luft-
feuchte
Wind Nieder-
schlag
Luftdruck Tendenz
IN OUT IN OUT Richtung Min. Max.
2022.08.17 05:56 24.3 °C 16.2 °C 42% 83% S 180 ° 0 km/h 3 km/h 0.0 mm 1015.40 hPa langsam steigend
06:56 24.0 °C 20.6 °C 43% 79% S 180 ° 0 km/h 0 km/h 0.0 mm 1015.60 hPa langsam steigend
07:56 24.7 °C 23.8 °C 50% 63% S 180 ° 0 km/h 1 km/h 0.0 mm 1015.60 hPa langsam steigend
08:56 25.8 °C 26.6 °C 50% 52% NO 45 ° 0 km/h 3 km/h 0.0 mm 1015.80 hPa langsam steigend
09:56 27.0 °C 27.0 °C 48% 48% S 180 ° 0 km/h 3 km/h 0.0 mm 1015.70 hPa langsam steigend
10:56 28.5 °C 28.0 °C 43% 44% N 349 ° 1 km/h 7 km/h 0.0 mm 1015.70 hPa langsam steigend
11:56 30.1 °C 30.2 °C 38% 41% NW 326 ° 5 km/h 12 km/h 0.0 mm 1015.60 hPa langsam fallend
12:56 31.5 °C 32.3 °C 32% 33% N 355 ° 5 km/h 13 km/h 0.0 mm 1014.90 hPa langsam fallend
13:56 33.0 °C 33.4 °C 32% 29% ONO 71 ° 5 km/h 12 km/h 0.0 mm 1014.60 hPa langsam fallend
14:56 34.0 °C 34.4 °C 31% 26% ONO 65 ° 2 km/h 9 km/h 0.0 mm 1014.30 hPa langsam fallend
15:56 35.0 °C 33.7 °C 28% 28% NO 40 ° 3 km/h 10 km/h 0.0 mm 1014.10 hPa langsam fallend
16:56 35.0 °C 33.7 °C 27% 27% N 355 ° 5 km/h 17 km/h 0.0 mm 1014.10 hPa langsam fallend
17:56 34.4 °C 34.4 °C 27% 24% N 1 ° 3 km/h 9 km/h 0.0 mm 1014.10 hPa langsam fallend
18:56 33.9 °C 31.7 °C 29% 25% NNW 349 ° 1 km/h 4 km/h 0.0 mm 1014.20 hPa langsam steigend
19:56 32.6 °C 29.2 °C 30% 34% S 180 ° 0 km/h 1 km/h 0.0 mm 1014.30 hPa langsam steigend
20:56 31.3 °C 27.0 °C 32% 39% S 180 ° 0 km/h 1 km/h 0.0 mm 1014.80 hPa langsam steigend
21:56 30.2 °C 25.4 °C 33% 44% S 180 ° 0 km/h 1 km/h 0.0 mm 1014.50 hPa langsam steigend
22:56 29.0 °C 24.7 °C 34% 45% S 180 ° 0 km/h 0 km/h 0.0 mm 1014.60 hPa langsam steigend
23:56 28.2 °C 23.3 °C 35% 50% S 180 ° 0 km/h 0 km/h 0.0 mm 1014.90 hPa langsam steigend
2022.08.18 00:56 27.1 °C 23.9 °C 36% 49% S 180 ° 0 km/h 1 km/h 0.0 mm 1014.60 hPa langsam steigend
01:56 26.2 °C 23.4 °C 37% 52% S 180 ° 0 km/h 1 km/h 0.0 mm 1014.10 hPa langsam fallend
02:56 26.2 °C 22.4 °C 37% 53% S 180 ° 0 km/h 1 km/h 0.0 mm 1014.40 hPa langsam fallend
03:56 25.9 °C 20.8 °C 39% 62% S 180 ° 0 km/h 0 km/h 0.0 mm 1014.00 hPa langsam fallend
04:56 25.6 °C 20.8 °C 39% 64% S 180 ° 0 km/h 1 km/h 0.0 mm 1013.80 hPa langsam fallend

 

Verlauf: letzte 24h
WIND   Windrose
(Klicke ins Bild, um den Hintergrund abzuschalten)
WIND   Windverkauf 2.5h
TEMP   Temperatur 2.5h
Druck   Luftdruck 2.5h
Regen   Luftdruck 2.5h